createdAt,value
2017-09-05T00:02:08.253Z,20.50
2017-09-05T00:04:36.688Z,20.70
2017-09-05T00:07:04.936Z,20.80
2017-09-05T00:09:33.818Z,20.70
2017-09-05T00:12:04.760Z,20.80
2017-09-05T00:14:48.727Z,20.80
2017-09-05T00:17:32.167Z,20.70
2017-09-05T00:20:02.395Z,20.90
2017-09-05T00:22:31.299Z,20.50
2017-09-05T00:24:59.547Z,20.60
2017-09-05T00:27:28.080Z,20.20
2017-09-05T00:29:56.311Z,20.60
2017-09-05T00:32:25.219Z,20.70
2017-09-05T00:34:53.594Z,20.70
2017-09-05T00:37:21.852Z,20.20
2017-09-05T00:39:50.172Z,20.70
2017-09-05T00:42:18.569Z,20.70
2017-09-05T00:44:46.879Z,20.70
2017-09-05T00:47:15.141Z,20.70
2017-09-05T00:49:43.412Z,20.60
2017-09-05T00:52:11.838Z,20.80
2017-09-05T00:54:40.267Z,20.80
2017-09-05T00:57:08.528Z,20.80
2017-09-05T00:59:36.826Z,20.80
2017-09-05T01:02:05.819Z,20.70
2017-09-05T01:04:34.101Z,20.70
2017-09-05T01:07:02.402Z,20.60
2017-09-05T01:09:30.741Z,20.70
2017-09-05T01:11:59.017Z,20.80
2017-09-05T01:14:29.381Z,20.50
2017-09-05T01:16:57.671Z,20.70
2017-09-05T01:19:26.028Z,20.50
2017-09-05T01:21:54.333Z,20.50
2017-09-05T01:24:22.680Z,20.80
2017-09-05T01:26:50.921Z,20.60
2017-09-05T01:29:19.229Z,20.70
2017-09-05T01:31:47.587Z,20.70
2017-09-05T01:34:15.879Z,20.10
2017-09-05T01:39:40.509Z,20.10
2017-09-05T01:42:08.755Z,20.60
2017-09-05T01:44:37.984Z,20.50
2017-09-05T01:47:06.231Z,20.50
2017-09-05T01:49:34.496Z,20.40
2017-09-05T01:52:02.767Z,20.50
2017-09-05T01:54:31.005Z,20.50
2017-09-05T01:56:59.480Z,20.50
2017-09-05T01:59:27.853Z,20.50
2017-09-05T02:01:56.130Z,20.70
2017-09-05T02:04:24.404Z,20.20
2017-09-05T02:06:52.667Z,20.50
2017-09-05T02:09:21.066Z,20.50
2017-09-05T02:11:49.459Z,20.20
2017-09-05T02:14:18.064Z,20.50
2017-09-05T02:16:46.344Z,20.20
2017-09-05T02:19:15.234Z,20.30
2017-09-05T02:21:43.525Z,20.50
2017-09-05T02:24:11.892Z,20.50
2017-09-05T02:26:40.938Z,20.50
2017-09-05T02:29:09.224Z,20.40
2017-09-05T02:31:38.103Z,20.40
2017-09-05T02:34:06.429Z,20.30
2017-09-05T02:36:34.727Z,20.30
2017-09-05T02:39:02.982Z,20.40
2017-09-05T02:41:31.273Z,20.30
2017-09-05T02:43:59.752Z,20.40
2017-09-05T02:46:27.981Z,20.40
2017-09-05T02:48:56.256Z,20.40
2017-09-05T02:51:24.580Z,20.70
2017-09-05T02:53:52.820Z,20.40
2017-09-05T02:56:21.135Z,20.60
2017-09-05T02:58:49.407Z,20.50
2017-09-05T03:01:17.694Z,20.40
2017-09-05T03:03:47.032Z,20.50
2017-09-05T03:06:15.301Z,20.50
2017-09-05T03:08:43.594Z,20.30
2017-09-05T03:11:11.884Z,20.50
2017-09-05T03:13:40.713Z,20.50
2017-09-05T03:16:08.987Z,20.60
2017-09-05T03:18:37.239Z,20.10
2017-09-05T03:21:05.538Z,20.50
2017-09-05T03:23:33.839Z,20.50
2017-09-05T03:26:02.111Z,20.50
2017-09-05T03:28:31.369Z,20.70
2017-09-05T03:30:59.680Z,20.40
2017-09-05T03:33:27.935Z,20.50
2017-09-05T03:35:56.327Z,20.60
2017-09-05T03:38:29.326Z,20.60
2017-09-05T03:40:58.514Z,20.60
2017-09-05T03:43:26.756Z,20.30
2017-09-05T03:45:55.152Z,20.60
2017-09-05T03:48:25.268Z,20.60
2017-09-05T03:50:54.300Z,20.60
2017-09-05T03:53:24.106Z,20.80
2017-09-05T03:55:52.448Z,20.30
2017-09-05T03:58:20.793Z,20.60
2017-09-05T04:00:49.061Z,20.20
2017-09-05T04:03:17.360Z,20.60
2017-09-05T04:05:45.620Z,20.60
2017-09-05T04:08:13.884Z,20.60
2017-09-05T04:10:42.166Z,20.40
2017-09-05T04:13:10.548Z,20.20
2017-09-05T04:15:38.968Z,20.40
2017-09-05T04:18:07.187Z,20.00
2017-09-05T04:20:35.436Z,20.60
2017-09-05T04:23:04.031Z,20.40
2017-09-05T04:25:33.734Z,20.40
2017-09-05T04:28:02.145Z,20.00
2017-09-05T04:30:30.385Z,20.20
2017-09-05T04:32:59.647Z,20.20
2017-09-05T04:35:27.931Z,20.30
2017-09-05T04:37:56.191Z,20.00
2017-09-05T04:40:26.717Z,20.20
2017-09-05T04:42:54.964Z,20.10
2017-09-05T04:45:23.327Z,20.10
2017-09-05T04:47:56.671Z,20.40
2017-09-05T04:50:25.070Z,20.30
2017-09-05T04:52:53.312Z,20.30
2017-09-05T04:55:23.141Z,20.00
2017-09-05T04:57:52.210Z,20.30
2017-09-05T05:00:21.429Z,20.30
2017-09-05T05:02:51.286Z,20.30
2017-09-05T05:05:19.680Z,20.30
2017-09-05T05:07:47.940Z,20.20
2017-09-05T05:10:16.324Z,20.20
2017-09-05T05:12:44.611Z,20.50
2017-09-05T05:15:12.919Z,20.30
2017-09-05T05:17:41.941Z,20.30
2017-09-05T05:20:12.011Z,20.20
2017-09-05T05:22:40.396Z,20.40
2017-09-05T05:27:44.322Z,20.40
2017-09-05T05:30:14.375Z,20.50
2017-09-05T05:32:42.775Z,20.30
2017-09-05T05:35:12.591Z,20.40
2017-09-05T05:37:40.820Z,20.30
2017-09-05T05:40:10.266Z,20.30
2017-09-05T05:42:40.331Z,20.20
2017-09-05T05:45:09.210Z,20.20
2017-09-05T05:47:37.478Z,20.20
2017-09-05T05:50:05.983Z,20.10
2017-09-05T05:52:34.423Z,20.00
2017-09-05T05:55:03.492Z,20.00
2017-09-05T05:57:31.923Z,20.10
2017-09-05T06:00:00.237Z,20.20
2017-09-05T06:02:28.488Z,20.10
2017-09-05T06:04:57.431Z,20.00
2017-09-05T06:07:25.660Z,19.90
2017-09-05T06:09:54.923Z,20.30
2017-09-05T06:12:26.203Z,20.20
2017-09-05T06:14:55.308Z,20.30
2017-09-05T06:17:24.512Z,20.10
2017-09-05T06:19:55.552Z,20.40
2017-09-05T06:22:23.908Z,20.40
2017-09-05T06:24:52.200Z,20.30
2017-09-05T06:27:21.350Z,20.60
2017-09-05T06:29:49.607Z,20.70
2017-09-05T06:32:19.651Z,20.40
2017-09-05T06:34:48.909Z,20.40
2017-09-05T06:37:17.163Z,20.60
2017-09-05T06:39:46.349Z,20.20
2017-09-05T06:42:14.608Z,20.20
2017-09-05T06:44:42.895Z,20.60
2017-09-05T06:47:12.262Z,20.30
2017-09-05T06:49:40.519Z,20.40
2017-09-05T06:52:08.779Z,20.70
2017-09-05T06:54:37.791Z,20.70
2017-09-05T06:57:06.131Z,20.70
2017-09-05T06:59:34.387Z,20.60
2017-09-05T07:02:03.511Z,20.60
2017-09-05T07:04:31.748Z,20.60
2017-09-05T07:07:01.883Z,20.60
2017-09-05T07:09:30.167Z,20.10
2017-09-05T07:11:58.423Z,20.60
2017-09-05T07:14:26.654Z,20.70
2017-09-05T07:16:54.917Z,20.80
2017-09-05T07:19:23.283Z,20.70
2017-09-05T07:21:51.527Z,20.70
2017-09-05T07:24:19.848Z,20.80
2017-09-05T07:26:48.092Z,20.90
2017-09-05T07:29:16.401Z,20.90
2017-09-05T07:31:44.761Z,20.60
2017-09-05T07:34:13.023Z,20.60
2017-09-05T07:36:41.342Z,21.00
2017-09-05T07:39:09.649Z,20.80
2017-09-05T07:41:38.195Z,21.00
2017-09-05T07:44:07.510Z,21.10
2017-09-05T07:46:35.764Z,21.00
2017-09-05T07:49:04.036Z,21.20
2017-09-05T07:51:32.295Z,21.40
2017-09-05T07:54:01.364Z,20.90
2017-09-05T07:56:29.633Z,21.10
2017-09-05T07:58:58.090Z,21.30
2017-09-05T08:01:26.494Z,21.30
2017-09-05T08:03:54.970Z,21.30
2017-09-05T08:06:26.534Z,21.40
2017-09-05T08:08:54.964Z,21.50
2017-09-05T08:11:23.452Z,21.50
2017-09-05T08:13:52.546Z,21.60
2017-09-05T08:16:20.838Z,21.60
2017-09-05T08:18:49.108Z,21.70
2017-09-05T08:21:17.551Z,21.80
2017-09-05T08:23:46.842Z,21.80
2017-09-05T08:26:15.137Z,21.40
2017-09-05T08:28:43.402Z,21.80
2017-09-05T08:31:11.695Z,21.90
2017-09-05T08:33:40.843Z,22.00
2017-09-05T08:36:09.295Z,21.90
2017-09-05T08:38:37.642Z,22.10
2017-09-05T08:41:05.944Z,22.10
2017-09-05T08:43:35.172Z,22.30
2017-09-05T08:46:04.254Z,22.30
2017-09-05T08:48:32.526Z,22.40
2017-09-05T08:51:00.872Z,22.40
2017-09-05T08:53:29.137Z,22.50
2017-09-05T08:55:57.423Z,22.60
2017-09-05T08:58:25.718Z,22.70
2017-09-05T09:00:54.017Z,22.70
2017-09-05T09:03:23.055Z,22.80
2017-09-05T09:05:52.205Z,22.90
2017-09-05T09:08:21.356Z,22.90
2017-09-05T09:10:49.736Z,23.00
2017-09-05T09:13:17.943Z,23.00
2017-09-05T09:15:46.249Z,23.10
2017-09-05T09:18:14.488Z,23.10
2017-09-05T09:20:42.769Z,23.20
2017-09-05T09:23:11.117Z,23.30
2017-09-05T09:25:39.417Z,23.30
2017-09-05T09:28:07.682Z,23.40
2017-09-05T09:30:37.693Z,23.40
2017-09-05T09:33:06.786Z,23.40
2017-09-05T09:35:36.206Z,23.40
2017-09-05T09:38:04.522Z,23.50
2017-09-05T09:40:32.878Z,23.60
2017-09-05T09:43:01.139Z,23.60
2017-09-05T09:45:29.447Z,23.70
2017-09-05T09:47:57.772Z,23.70
2017-09-05T09:50:26.009Z,23.80
2017-09-05T09:52:54.259Z,23.80
2017-09-05T09:55:22.535Z,23.90
2017-09-05T09:57:53.762Z,23.80
2017-09-05T10:00:22.000Z,23.90
2017-09-05T10:02:51.205Z,23.90
2017-09-05T10:05:19.512Z,24.00
2017-09-05T10:07:48.151Z,24.00
2017-09-05T10:10:16.831Z,24.00
2017-09-05T10:12:46.810Z,24.10
2017-09-05T10:15:15.105Z,24.20
2017-09-05T10:17:44.357Z,24.30
2017-09-05T10:20:12.643Z,24.40
2017-09-05T10:22:40.908Z,24.50
2017-09-05T10:25:10.158Z,24.60
2017-09-05T10:27:39.314Z,24.60
2017-09-05T10:30:08.704Z,24.70
2017-09-05T10:32:36.952Z,24.80
2017-09-05T10:35:05.227Z,24.80
2017-09-05T10:37:33.490Z,24.80
2017-09-05T10:40:02.880Z,24.90
2017-09-05T10:42:31.127Z,24.90
2017-09-05T10:45:01.316Z,24.90
2017-09-05T10:47:31.284Z,24.90
2017-09-05T10:50:00.042Z,24.90
2017-09-05T10:52:28.275Z,24.90
2017-09-05T10:54:56.552Z,24.90
2017-09-05T10:57:25.853Z,24.90
2017-09-05T10:59:54.331Z,24.80
2017-09-05T11:02:23.586Z,24.80
2017-09-05T11:04:51.864Z,24.80
2017-09-05T11:07:20.256Z,24.80
2017-09-05T11:09:48.609Z,24.90
2017-09-05T11:12:17.348Z,24.90
2017-09-05T11:14:45.734Z,24.90
2017-09-05T11:17:13.988Z,25.00
2017-09-05T11:19:42.244Z,25.00
2017-09-05T11:22:11.373Z,25.10
2017-09-05T11:24:40.503Z,25.10
2017-09-05T11:27:09.160Z,25.20
2017-09-05T11:29:38.216Z,25.20
2017-09-05T11:32:07.352Z,25.20
2017-09-05T11:34:36.883Z,25.30
2017-09-05T11:37:06.194Z,25.40
2017-09-05T11:39:35.552Z,25.50
2017-09-05T11:42:03.830Z,25.60
2017-09-05T11:44:32.105Z,25.80
2017-09-05T11:47:00.638Z,25.80
2017-09-05T11:49:29.982Z,25.90
2017-09-05T11:51:59.077Z,25.90
2017-09-05T11:54:27.332Z,25.90
2017-09-05T11:56:55.616Z,26.00
2017-09-05T11:59:24.025Z,26.00
2017-09-05T12:01:52.298Z,26.00
2017-09-05T12:04:20.608Z,26.00
2017-09-05T12:06:50.006Z,26.00
2017-09-05T12:09:18.360Z,26.00
2017-09-05T12:11:47.506Z,26.00
2017-09-05T12:14:15.815Z,26.00
2017-09-05T12:16:44.815Z,26.00
2017-09-05T12:19:13.855Z,26.00
2017-09-05T12:24:16.435Z,25.90
2017-09-05T12:26:44.764Z,25.80
2017-09-05T12:29:13.037Z,25.80
2017-09-05T12:31:42.099Z,25.90
2017-09-05T12:34:10.434Z,25.90
2017-09-05T12:36:38.743Z,26.00
2017-09-05T12:39:07.841Z,26.00
2017-09-05T12:41:36.130Z,26.00
2017-09-05T12:44:04.452Z,26.00
2017-09-05T12:46:33.684Z,26.00
2017-09-05T12:49:01.982Z,25.90
2017-09-05T12:51:30.302Z,25.90
2017-09-05T12:53:58.561Z,25.90
2017-09-05T12:56:27.694Z,26.00
2017-09-05T12:58:55.945Z,26.00
2017-09-05T13:01:24.190Z,25.90
2017-09-05T13:03:53.384Z,25.80
2017-09-05T13:06:21.653Z,25.90
2017-09-05T13:08:50.818Z,26.00
2017-09-05T13:11:19.081Z,25.90
2017-09-05T13:13:48.289Z,25.90
2017-09-05T13:16:16.689Z,25.90
2017-09-05T13:18:44.979Z,25.90
2017-09-05T13:21:13.454Z,25.90
2017-09-05T13:23:42.009Z,25.80
2017-09-05T13:26:10.279Z,25.90
2017-09-05T13:28:38.587Z,25.80
2017-09-05T13:31:07.098Z,25.80
2017-09-05T13:33:35.334Z,25.80
2017-09-05T13:36:04.405Z,25.90
2017-09-05T13:38:33.860Z,25.90
2017-09-05T13:41:03.341Z,25.90
2017-09-05T13:43:31.829Z,25.90
2017-09-05T13:46:00.119Z,25.80
2017-09-05T13:48:28.359Z,25.80
2017-09-05T13:50:56.727Z,25.80
2017-09-05T13:53:25.161Z,25.80
2017-09-05T13:55:54.335Z,25.70
2017-09-05T13:58:22.591Z,25.70
2017-09-05T14:00:51.968Z,25.70
2017-09-05T14:03:21.092Z,25.60
2017-09-05T14:05:49.413Z,25.60
2017-09-05T14:08:17.690Z,25.60
2017-09-05T14:10:46.887Z,25.60
2017-09-05T14:13:15.241Z,25.70
2017-09-05T14:15:44.601Z,25.70
2017-09-05T14:18:12.953Z,25.60
2017-09-05T14:20:42.248Z,25.60
2017-09-05T14:23:11.549Z,25.60
2017-09-05T14:28:44.055Z,25.60
2017-09-05T14:31:12.450Z,25.60
2017-09-05T14:33:41.728Z,25.60
2017-09-05T14:36:10.161Z,25.60
2017-09-05T14:38:40.402Z,25.50
2017-09-05T14:41:08.740Z,25.50
2017-09-05T14:43:37.049Z,25.50
2017-09-05T14:46:06.274Z,25.50
2017-09-05T14:48:34.577Z,25.40
2017-09-05T14:51:05.824Z,25.40
2017-09-05T14:53:34.098Z,25.40
2017-09-05T14:56:04.479Z,25.40
2017-09-05T14:58:32.728Z,25.50
2017-09-05T15:01:02.786Z,25.50
2017-09-05T15:03:31.182Z,25.60
2017-09-05T15:05:59.608Z,25.60
2017-09-05T15:08:28.032Z,25.70
2017-09-05T15:10:56.408Z,25.80
2017-09-05T15:13:25.710Z,25.70
2017-09-05T15:15:54.012Z,25.70
2017-09-05T15:18:22.314Z,25.70
2017-09-05T15:20:51.554Z,25.70
2017-09-05T15:23:20.032Z,25.70
2017-09-05T15:25:48.381Z,25.70
2017-09-05T15:28:17.372Z,25.60
2017-09-05T15:30:46.040Z,25.70
2017-09-05T15:33:17.207Z,25.80
2017-09-05T15:35:48.015Z,25.90
2017-09-05T15:38:17.140Z,25.90
2017-09-05T15:40:46.390Z,25.90
2017-09-05T15:43:15.262Z,25.80
2017-09-05T15:45:44.550Z,25.80
2017-09-05T15:48:12.881Z,25.80
2017-09-05T15:50:42.029Z,25.80
2017-09-05T15:53:10.902Z,25.70
2017-09-05T15:55:39.162Z,25.70
2017-09-05T15:58:08.458Z,25.80
2017-09-05T16:00:36.779Z,25.80
2017-09-05T16:03:10.064Z,25.80
2017-09-05T16:05:38.376Z,25.70
2017-09-05T16:08:07.499Z,25.70
2017-09-05T16:10:35.910Z,25.70
2017-09-05T16:13:04.203Z,25.80
2017-09-05T16:15:33.377Z,25.80
2017-09-05T16:18:01.703Z,25.80
2017-09-05T16:20:30.019Z,25.80
2017-09-05T16:22:58.435Z,25.80
2017-09-05T16:25:27.693Z,25.80
2017-09-05T16:27:56.744Z,25.80
2017-09-05T16:30:25.115Z,25.80
2017-09-05T16:32:53.444Z,25.80
2017-09-05T16:35:21.775Z,25.70
2017-09-05T16:37:50.118Z,25.70
2017-09-05T16:40:18.487Z,25.60
2017-09-05T16:42:46.793Z,25.60
2017-09-05T16:45:15.071Z,25.60
2017-09-05T16:47:43.402Z,25.60
2017-09-05T16:50:12.682Z,25.50
2017-09-05T16:52:41.757Z,25.60
2017-09-05T16:55:10.071Z,25.60
2017-09-05T16:57:38.380Z,25.60
2017-09-05T17:00:06.821Z,25.60
2017-09-05T17:02:35.352Z,25.60
2017-09-05T17:05:03.711Z,25.60
2017-09-05T17:07:32.053Z,25.60
2017-09-05T17:10:00.452Z,25.60
2017-09-05T17:12:28.759Z,25.60
2017-09-05T17:14:57.937Z,25.60
2017-09-05T17:17:27.456Z,25.60
2017-09-05T17:19:56.022Z,25.60
2017-09-05T17:22:24.363Z,25.50
2017-09-05T17:24:52.669Z,25.50
2017-09-05T17:27:21.016Z,25.40
2017-09-05T17:29:49.442Z,25.40
2017-09-05T17:32:17.728Z,25.40
2017-09-05T17:34:46.166Z,25.40
2017-09-05T17:37:14.970Z,25.40
2017-09-05T17:39:43.507Z,25.40
2017-09-05T17:42:11.870Z,25.40
2017-09-05T17:44:41.133Z,25.30
2017-09-05T17:47:09.483Z,25.30
2017-09-05T17:49:39.710Z,25.30
2017-09-05T17:52:08.809Z,25.30
2017-09-05T17:54:37.274Z,25.30
2017-09-05T17:57:05.640Z,25.30
2017-09-05T17:59:34.034Z,25.20
2017-09-05T18:02:03.928Z,25.10
2017-09-05T18:04:32.242Z,25.10
2017-09-05T18:07:00.612Z,25.10
2017-09-05T18:09:29.034Z,25.10
2017-09-05T18:11:57.530Z,25.10
2017-09-05T18:14:25.871Z,25.10
2017-09-05T18:16:54.292Z,25.10
2017-09-05T18:19:22.874Z,25.00
2017-09-05T18:21:52.000Z,25.00
2017-09-05T18:24:22.320Z,25.00
2017-09-05T18:26:51.285Z,25.10
2017-09-05T18:29:21.932Z,25.10
2017-09-05T18:31:52.313Z,25.10
2017-09-05T18:34:21.739Z,25.10
2017-09-05T18:36:52.672Z,25.00
2017-09-05T18:39:22.678Z,24.90
2017-09-05T18:41:55.811Z,24.90
2017-09-05T18:44:25.149Z,24.90
2017-09-05T18:46:58.108Z,24.90
2017-09-05T18:49:27.699Z,24.80
2017-09-05T18:52:01.501Z,24.90
2017-09-05T18:54:31.492Z,25.00
2017-09-05T18:57:03.178Z,25.00
2017-09-05T18:59:34.250Z,24.90
2017-09-05T19:02:06.812Z,24.70
2017-09-05T19:04:38.535Z,24.70
2017-09-05T19:07:07.593Z,24.60
2017-09-05T19:09:38.055Z,24.50
2017-09-05T19:12:07.166Z,24.50
2017-09-05T19:14:39.284Z,24.30
2017-09-05T19:17:07.906Z,24.30
2017-09-05T19:19:37.912Z,24.30
2017-09-05T19:22:06.787Z,24.40
2017-09-05T19:24:35.223Z,24.40
2017-09-05T19:27:03.670Z,24.40
2017-09-05T19:29:33.340Z,24.50
2017-09-05T19:32:02.501Z,24.40
2017-09-05T19:34:31.633Z,24.40
2017-09-05T19:37:00.042Z,24.40
2017-09-05T19:39:29.920Z,24.50
2017-09-05T19:41:58.780Z,24.40
2017-09-05T19:44:28.945Z,24.40
2017-09-05T19:46:58.754Z,24.40
2017-09-05T19:49:29.566Z,24.40
2017-09-05T19:52:00.307Z,24.30
2017-09-05T19:54:29.805Z,24.30
2017-09-05T19:57:00.656Z,24.20
2017-09-05T19:59:29.034Z,24.20
2017-09-05T20:02:00.084Z,24.20
2017-09-05T20:04:28.574Z,24.20
2017-09-05T20:06:56.982Z,24.20
2017-09-05T20:09:25.966Z,24.20
2017-09-05T20:11:54.824Z,24.20
2017-09-05T20:14:23.559Z,24.20
2017-09-05T20:16:51.863Z,24.20
2017-09-05T20:19:20.357Z,24.20
2017-09-05T20:21:48.790Z,23.90
2017-09-05T20:24:18.592Z,23.60
2017-09-05T20:26:47.809Z,23.50
2017-09-05T20:29:16.486Z,23.50
2017-09-05T20:31:44.844Z,23.70
2017-09-05T20:34:14.388Z,23.90
2017-09-05T20:36:45.061Z,24.00
2017-09-05T20:39:14.929Z,24.00
2017-09-05T20:41:46.571Z,24.00
2017-09-05T20:44:14.982Z,24.00
2017-09-05T20:46:43.292Z,24.10
2017-09-05T20:49:13.533Z,24.10
2017-09-05T20:51:41.828Z,24.20
2017-09-05T20:54:10.233Z,24.20
2017-09-05T20:56:39.384Z,24.20
2017-09-05T20:59:07.678Z,24.20
2017-09-05T21:01:35.980Z,24.20
2017-09-05T21:04:04.289Z,24.20
2017-09-05T21:06:33.242Z,24.20
2017-09-05T21:09:01.779Z,24.10
2017-09-05T21:11:30.406Z,24.10
2017-09-05T21:13:58.857Z,24.10
2017-09-05T21:16:27.997Z,24.10
2017-09-05T21:18:56.264Z,24.00
2017-09-05T21:21:24.660Z,24.00
2017-09-05T21:23:52.951Z,24.00
2017-09-05T21:26:21.337Z,23.90
2017-09-05T21:28:49.568Z,23.80
2017-09-05T21:31:18.015Z,23.80
2017-09-05T21:33:46.448Z,23.80
2017-09-05T21:36:14.763Z,23.80
2017-09-05T21:38:43.113Z,23.70
2017-09-05T21:41:11.376Z,23.80
2017-09-05T21:43:39.693Z,23.80
2017-09-05T21:46:08.694Z,23.80
2017-09-05T21:48:36.953Z,23.80
2017-09-05T21:51:05.244Z,23.80
2017-09-05T21:53:34.379Z,23.80
2017-09-05T21:56:02.683Z,23.80
2017-09-05T21:58:31.921Z,23.80
2017-09-05T22:01:00.219Z,23.80
2017-09-05T22:03:29.474Z,23.80
2017-09-05T22:05:58.614Z,23.90
2017-09-05T22:08:27.820Z,23.80
2017-09-05T22:10:56.055Z,23.80
2017-09-05T22:13:24.339Z,23.80
2017-09-05T22:15:53.571Z,23.80
2017-09-05T22:18:27.518Z,23.80
2017-09-05T22:21:01.387Z,23.80
2017-09-05T22:23:29.668Z,23.70
2017-09-05T22:26:04.440Z,23.70
2017-09-05T22:28:38.384Z,23.60
2017-09-05T22:31:06.721Z,23.60
2017-09-05T22:33:35.035Z,23.60
2017-09-05T22:36:03.304Z,23.50
2017-09-05T22:38:31.580Z,23.50
2017-09-05T22:40:59.884Z,23.50
2017-09-05T22:43:28.179Z,23.50
2017-09-05T22:45:56.882Z,23.50
2017-09-05T22:48:25.145Z,23.50
2017-09-05T22:50:53.423Z,23.60
2017-09-05T22:53:21.793Z,23.50
2017-09-05T22:55:50.099Z,23.50
2017-09-05T22:58:18.435Z,23.40
2017-09-05T23:00:48.520Z,23.50
2017-09-05T23:03:16.749Z,23.40
2017-09-05T23:05:45.084Z,23.40
2017-09-05T23:08:13.329Z,23.40
2017-09-05T23:10:41.592Z,23.40
2017-09-05T23:13:11.134Z,23.30
2017-09-05T23:15:39.416Z,23.20
2017-09-05T23:18:07.636Z,23.20
2017-09-05T23:20:38.869Z,23.30
2017-09-05T23:23:07.125Z,23.30
2017-09-05T23:25:35.451Z,23.30
2017-09-05T23:28:03.702Z,23.30
2017-09-05T23:30:31.978Z,23.30
2017-09-05T23:33:00.309Z,23.30
2017-09-05T23:35:28.562Z,23.30
2017-09-05T23:37:57.789Z,23.30
2017-09-05T23:40:26.137Z,23.30
2017-09-05T23:42:54.400Z,23.30
2017-09-05T23:45:23.628Z,23.30
2017-09-05T23:47:51.968Z,23.30
2017-09-05T23:50:20.224Z,23.30
2017-09-05T23:52:48.514Z,23.30
2017-09-05T23:55:16.795Z,23.20
2017-09-05T23:57:46.030Z,23.30
